sensor_id;sensor_type;location;lat;lon;timestamp;P1;durP1;ratioP1;P2;durP2;ratioP2
83410;SDS011;73340;53.132;8.174;2024-03-02T00:01:14;13.57;;;6.32;;
83410;SDS011;73340;53.132;8.174;2024-03-02T00:03:39;13.05;;;6.82;;
83410;SDS011;73340;53.132;8.174;2024-03-02T00:06:05;11.95;;;6.35;;
83410;SDS011;73340;53.132;8.174;2024-03-02T00:08:31;13.82;;;6.13;;
83410;SDS011;73340;53.132;8.174;2024-03-02T00:10:57;13.03;;;6.40;;
83410;SDS011;73340;53.132;8.174;2024-03-02T00:13:22;13.68;;;6.35;;
83410;SDS011;73340;53.132;8.174;2024-03-02T00:15:48;11.50;;;6.68;;
83410;SDS011;73340;53.132;8.174;2024-03-02T00:18:18;11.85;;;6.22;;
83410;SDS011;73340;53.132;8.174;2024-03-02T00:20:43;11.73;;;6.50;;
83410;SDS011;73340;53.132;8.174;2024-03-02T00:23:09;11.23;;;6.13;;
83410;SDS011;73340;53.132;8.174;2024-03-02T00:25:38;10.95;;;5.97;;
83410;SDS011;73340;53.132;8.174;2024-03-02T00:28:29;11.43;;;5.85;;
83410;SDS011;73340;53.132;8.174;2024-03-02T00:31:01;12.63;;;6.38;;
83410;SDS011;73340;53.132;8.174;2024-03-02T00:33:27;11.15;;;6.75;;
83410;SDS011;73340;53.132;8.174;2024-03-02T00:35:53;13.23;;;6.70;;
83410;SDS011;73340;53.132;8.174;2024-03-02T00:38:19;12.65;;;6.70;;
83410;SDS011;73340;53.132;8.174;2024-03-02T00:40:44;11.73;;;5.20;;
83410;SDS011;73340;53.132;8.174;2024-03-02T00:43:12;12.07;;;6.30;;
83410;SDS011;73340;53.132;8.174;2024-03-02T00:45:46;12.07;;;6.13;;
83410;SDS011;73340;53.132;8.174;2024-03-02T00:48:11;11.37;;;5.70;;
83410;SDS011;73340;53.132;8.174;2024-03-02T00:50:39;11.15;;;5.82;;
83410;SDS011;73340;53.132;8.174;2024-03-02T00:53:04;13.10;;;6.40;;
83410;SDS011;73340;53.132;8.174;2024-03-02T00:55:30;11.17;;;6.33;;
83410;SDS011;73340;53.132;8.174;2024-03-02T00:57:55;11.30;;;6.30;;
83410;SDS011;73340;53.132;8.174;2024-03-02T01:00:20;11.83;;;6.53;;
83410;SDS011;73340;53.132;8.174;2024-03-02T01:02:45;10.23;;;6.03;;
83410;SDS011;73340;53.132;8.174;2024-03-02T01:05:11;10.32;;;6.03;;
83410;SDS011;73340;53.132;8.174;2024-03-02T01:07:37;8.73;;;5.67;;
83410;SDS011;73340;53.132;8.174;2024-03-02T01:10:03;11.57;;;6.07;;
83410;SDS011;73340;53.132;8.174;2024-03-02T01:12:30;13.65;;;6.90;;
83410;SDS011;73340;53.132;8.174;2024-03-02T01:14:55;10.07;;;5.83;;
83410;SDS011;73340;53.132;8.174;2024-03-02T01:17:21;12.17;;;6.93;;
83410;SDS011;73340;53.132;8.174;2024-03-02T01:19:46;11.03;;;5.83;;
83410;SDS011;73340;53.132;8.174;2024-03-02T01:22:11;12.93;;;5.90;;
83410;SDS011;73340;53.132;8.174;2024-03-02T01:24:37;12.07;;;6.20;;
83410;SDS011;73340;53.132;8.174;2024-03-02T01:27:02;12.30;;;6.90;;
83410;SDS011;73340;53.132;8.174;2024-03-02T01:29:28;11.67;;;6.70;;
83410;SDS011;73340;53.132;8.174;2024-03-02T01:31:53;11.55;;;6.30;;
83410;SDS011;73340;53.132;8.174;2024-03-02T01:34:18;12.13;;;6.40;;
83410;SDS011;73340;53.132;8.174;2024-03-02T01:36:43;12.07;;;5.90;;
83410;SDS011;73340;53.132;8.174;2024-03-02T01:39:09;11.20;;;6.07;;
83410;SDS011;73340;53.132;8.174;2024-03-02T01:41:34;11.30;;;5.60;;
83410;SDS011;73340;53.132;8.174;2024-03-02T01:43:59;11.80;;;5.70;;
83410;SDS011;73340;53.132;8.174;2024-03-02T01:46:25;11.70;;;6.43;;
83410;SDS011;73340;53.132;8.174;2024-03-02T01:48:50;11.30;;;6.33;;
83410;SDS011;73340;53.132;8.174;2024-03-02T01:51:15;10.30;;;6.50;;
83410;SDS011;73340;53.132;8.174;2024-03-02T01:53:40;11.70;;;6.30;;
83410;SDS011;73340;53.132;8.174;2024-03-02T01:56:05;9.97;;;6.00;;
83410;SDS011;73340;53.132;8.174;2024-03-02T01:58:31;10.80;;;6.10;;
83410;SDS011;73340;53.132;8.174;2024-03-02T02:00:56;10.47;;;6.37;;
83410;SDS011;73340;53.132;8.174;2024-03-02T02:03:21;9.97;;;5.57;;
83410;SDS011;73340;53.132;8.174;2024-03-02T02:05:46;9.40;;;5.00;;
83410;SDS011;73340;53.132;8.174;2024-03-02T02:08:13;10.15;;;5.35;;
83410;SDS011;73340;53.132;8.174;2024-03-02T02:10:38;11.47;;;5.97;;
83410;SDS011;73340;53.132;8.174;2024-03-02T02:13:03;11.87;;;5.57;;
83410;SDS011;73340;53.132;8.174;2024-03-02T02:15:29;12.63;;;5.77;;
83410;SDS011;73340;53.132;8.174;2024-03-02T02:17:55;10.10;;;6.75;;
83410;SDS011;73340;53.132;8.174;2024-03-02T02:20:20;12.13;;;6.53;;
83410;SDS011;73340;53.132;8.174;2024-03-02T02:25:26;13.10;;;6.53;;
83410;SDS011;73340;53.132;8.174;2024-03-02T02:27:51;12.13;;;6.78;;
83410;SDS011;73340;53.132;8.174;2024-03-02T02:30:20;11.55;;;7.03;;
83410;SDS011;73340;53.132;8.174;2024-03-02T02:32:45;10.30;;;6.03;;
83410;SDS011;73340;53.132;8.174;2024-03-02T02:35:11;11.13;;;6.33;;
83410;SDS011;73340;53.132;8.174;2024-03-02T02:37:36;11.43;;;7.10;;
83410;SDS011;73340;53.132;8.174;2024-03-02T02:40:01;14.65;;;9.35;;
83410;SDS011;73340;53.132;8.174;2024-03-02T02:42:27;12.88;;;7.03;;
83410;SDS011;73340;53.132;8.174;2024-03-02T02:44:52;13.33;;;6.40;;
83410;SDS011;73340;53.132;8.174;2024-03-02T02:47:17;12.40;;;6.50;;
83410;SDS011;73340;53.132;8.174;2024-03-02T02:49:42;11.73;;;6.07;;
83410;SDS011;73340;53.132;8.174;2024-03-02T02:52:07;14.80;;;7.87;;
83410;SDS011;73340;53.132;8.174;2024-03-02T02:54:33;11.77;;;6.60;;
83410;SDS011;73340;53.132;8.174;2024-03-02T02:56:58;14.50;;;7.00;;
83410;SDS011;73340;53.132;8.174;2024-03-02T02:59:24;15.35;;;7.32;;
83410;SDS011;73340;53.132;8.174;2024-03-02T03:01:51;11.83;;;5.90;;
83410;SDS011;73340;53.132;8.174;2024-03-02T03:04:16;11.40;;;6.78;;
83410;SDS011;73340;53.132;8.174;2024-03-02T03:06:41;9.40;;;5.93;;
83410;SDS011;73340;53.132;8.174;2024-03-02T03:11:31;12.05;;;5.13;;
83410;SDS011;73340;53.132;8.174;2024-03-02T03:13:57;10.97;;;5.60;;
83410;SDS011;73340;53.132;8.174;2024-03-02T03:16:22;13.20;;;6.00;;
83410;SDS011;73340;53.132;8.174;2024-03-02T03:21:12;10.40;;;5.72;;
83410;SDS011;73340;53.132;8.174;2024-03-02T03:23:38;13.20;;;6.63;;
83410;SDS011;73340;53.132;8.174;2024-03-02T03:26:03;11.13;;;6.63;;
83410;SDS011;73340;53.132;8.174;2024-03-02T03:28:29;13.48;;;7.22;;
83410;SDS011;73340;53.132;8.174;2024-03-02T03:30:54;17.53;;;8.50;;
83410;SDS011;73340;53.132;8.174;2024-03-02T03:35:44;11.95;;;6.55;;
83410;SDS011;73340;53.132;8.174;2024-03-02T03:38:10;11.40;;;6.07;;
83410;SDS011;73340;53.132;8.174;2024-03-02T03:40:35;14.70;;;6.73;;
83410;SDS011;73340;53.132;8.174;2024-03-02T03:43:00;11.63;;;7.00;;
83410;SDS011;73340;53.132;8.174;2024-03-02T03:45:25;11.50;;;5.63;;
83410;SDS011;73340;53.132;8.174;2024-03-02T03:47:51;10.80;;;6.30;;
83410;SDS011;73340;53.132;8.174;2024-03-02T03:52:42;11.90;;;5.87;;
83410;SDS011;73340;53.132;8.174;2024-03-02T03:57:32;10.00;;;5.95;;
83410;SDS011;73340;53.132;8.174;2024-03-02T04:02:22;11.63;;;6.28;;
83410;SDS011;73340;53.132;8.174;2024-03-02T04:04:49;12.98;;;7.00;;
83410;SDS011;73340;53.132;8.174;2024-03-02T04:07:14;14.07;;;7.43;;
83410;SDS011;73340;53.132;8.174;2024-03-02T04:09:40;12.57;;;6.17;;
83410;SDS011;73340;53.132;8.174;2024-03-02T04:12:05;14.90;;;7.70;;
83410;SDS011;73340;53.132;8.174;2024-03-02T04:14:30;12.02;;;7.00;;
83410;SDS011;73340;53.132;8.174;2024-03-02T04:16:56;12.00;;;6.33;;
83410;SDS011;73340;53.132;8.174;2024-03-02T04:21:46;15.77;;;7.13;;
83410;SDS011;73340;53.132;8.174;2024-03-02T04:26:36;13.70;;;6.22;;
83410;SDS011;73340;53.132;8.174;2024-03-02T04:31:27;13.43;;;6.80;;
83410;SDS011;73340;53.132;8.174;2024-03-02T04:36:17;12.43;;;6.22;;
83410;SDS011;73340;53.132;8.174;2024-03-02T04:41:07;13.77;;;7.00;;
83410;SDS011;73340;53.132;8.174;2024-03-02T04:43:33;12.83;;;7.17;;
83410;SDS011;73340;53.132;8.174;2024-03-02T04:45:58;13.95;;;6.43;;
83410;SDS011;73340;53.132;8.174;2024-03-02T04:50:49;18.10;;;9.38;;
83410;SDS011;73340;53.132;8.174;2024-03-02T04:55:39;12.43;;;6.80;;
83410;SDS011;73340;53.132;8.174;2024-03-02T04:58:04;11.47;;;6.43;;
83410;SDS011;73340;53.132;8.174;2024-03-02T05:00:30;12.88;;;6.15;;
83410;SDS011;73340;53.132;8.174;2024-03-02T05:05:20;18.60;;;7.05;;
83410;SDS011;73340;53.132;8.174;2024-03-02T05:10:10;13.13;;;7.20;;
83410;SDS011;73340;53.132;8.174;2024-03-02T05:12:36;12.55;;;7.03;;
83410;SDS011;73340;53.132;8.174;2024-03-02T05:15:07;13.50;;;7.22;;
83410;SDS011;73340;53.132;8.174;2024-03-02T05:17:33;15.63;;;6.70;;
83410;SDS011;73340;53.132;8.174;2024-03-02T05:19:58;13.25;;;6.35;;
83410;SDS011;73340;53.132;8.174;2024-03-02T05:22:23;11.60;;;6.65;;
83410;SDS011;73340;53.132;8.174;2024-03-02T05:24:49;15.33;;;7.90;;
83410;SDS011;73340;53.132;8.174;2024-03-02T05:27:14;15.70;;;7.53;;
83410;SDS011;73340;53.132;8.174;2024-03-02T05:32:04;10.05;;;6.07;;
83410;SDS011;73340;53.132;8.174;2024-03-02T05:36:55;15.38;;;7.78;;
83410;SDS011;73340;53.132;8.174;2024-03-02T05:39:22;12.43;;;6.57;;
83410;SDS011;73340;53.132;8.174;2024-03-02T05:44:13;14.95;;;7.80;;
83410;SDS011;73340;53.132;8.174;2024-03-02T05:46:38;13.07;;;6.80;;
83410;SDS011;73340;53.132;8.174;2024-03-02T05:51:28;11.32;;;7.22;;
83410;SDS011;73340;53.132;8.174;2024-03-02T05:56:19;21.80;;;10.32;;
83410;SDS011;73340;53.132;8.174;2024-03-02T06:01:25;14.07;;;6.88;;
83410;SDS011;73340;53.132;8.174;2024-03-02T06:03:54;12.88;;;6.88;;
83410;SDS011;73340;53.132;8.174;2024-03-02T06:06:19;12.68;;;7.40;;
83410;SDS011;73340;53.132;8.174;2024-03-02T06:08:46;12.70;;;6.22;;
83410;SDS011;73340;53.132;8.174;2024-03-02T06:13:36;12.60;;;7.45;;
83410;SDS011;73340;53.132;8.174;2024-03-02T06:18:26;14.10;;;6.88;;
83410;SDS011;73340;53.132;8.174;2024-03-02T06:20:52;12.35;;;6.75;;
83410;SDS011;73340;53.132;8.174;2024-03-02T06:23:18;13.27;;;7.70;;
83410;SDS011;73340;53.132;8.174;2024-03-02T06:28:08;12.77;;;6.95;;
83410;SDS011;73340;53.132;8.174;2024-03-02T06:32:58;13.82;;;6.82;;
83410;SDS011;73340;53.132;8.174;2024-03-02T06:35:23;15.13;;;7.37;;
83410;SDS011;73340;53.132;8.174;2024-03-02T06:40:14;13.18;;;7.85;;
83410;SDS011;73340;53.132;8.174;2024-03-02T06:42:39;13.37;;;6.43;;
83410;SDS011;73340;53.132;8.174;2024-03-02T06:45:04;12.73;;;6.80;;
83410;SDS011;73340;53.132;8.174;2024-03-02T06:47:30;16.63;;;8.00;;
83410;SDS011;73340;53.132;8.174;2024-03-02T06:49:55;13.85;;;7.68;;
83410;SDS011;73340;53.132;8.174;2024-03-02T06:52:22;13.30;;;7.28;;
83410;SDS011;73340;53.132;8.174;2024-03-02T06:54:47;12.53;;;7.63;;
83410;SDS011;73340;53.132;8.174;2024-03-02T06:57:12;14.57;;;8.80;;
83410;SDS011;73340;53.132;8.174;2024-03-02T06:59:37;14.17;;;7.87;;
83410;SDS011;73340;53.132;8.174;2024-03-02T07:02:03;14.80;;;8.17;;
83410;SDS011;73340;53.132;8.174;2024-03-02T07:04:28;12.32;;;7.10;;
83410;SDS011;73340;53.132;8.174;2024-03-02T07:06:53;14.43;;;7.40;;
83410;SDS011;73340;53.132;8.174;2024-03-02T07:09:19;14.55;;;8.23;;
83410;SDS011;73340;53.132;8.174;2024-03-02T07:11:47;16.75;;;8.45;;
83410;SDS011;73340;53.132;8.174;2024-03-02T07:14:12;16.10;;;8.50;;
83410;SDS011;73340;53.132;8.174;2024-03-02T07:16:38;19.03;;;8.80;;
83410;SDS011;73340;53.132;8.174;2024-03-02T07:19:04;16.88;;;8.02;;
83410;SDS011;73340;53.132;8.174;2024-03-02T07:21:30;14.27;;;8.20;;
83410;SDS011;73340;53.132;8.174;2024-03-02T07:23:57;15.85;;;8.95;;
83410;SDS011;73340;53.132;8.174;2024-03-02T07:26:22;19.15;;;10.07;;
83410;SDS011;73340;53.132;8.174;2024-03-02T07:28:48;16.48;;;8.48;;
83410;SDS011;73340;53.132;8.174;2024-03-02T07:33:39;16.80;;;9.27;;
83410;SDS011;73340;53.132;8.174;2024-03-02T07:38:29;16.60;;;9.50;;
83410;SDS011;73340;53.132;8.174;2024-03-02T07:40:54;18.77;;;9.50;;
83410;SDS011;73340;53.132;8.174;2024-03-02T07:45:45;17.80;;;9.38;;
83410;SDS011;73340;53.132;8.174;2024-03-02T07:48:11;15.48;;;8.82;;
83410;SDS011;73340;53.132;8.174;2024-03-02T07:50:36;16.08;;;7.72;;
83410;SDS011;73340;53.132;8.174;2024-03-02T07:53:02;17.38;;;9.55;;
83410;SDS011;73340;53.132;8.174;2024-03-02T07:55:27;16.90;;;9.38;;
83410;SDS011;73340;53.132;8.174;2024-03-02T08:00:18;15.43;;;8.48;;
83410;SDS011;73340;53.132;8.174;2024-03-02T08:02:43;17.13;;;8.30;;
83410;SDS011;73340;53.132;8.174;2024-03-02T08:05:08;16.73;;;8.87;;
83410;SDS011;73340;53.132;8.174;2024-03-02T08:07:34;15.30;;;8.15;;
83410;SDS011;73340;53.132;8.174;2024-03-02T08:09:59;14.75;;;8.15;;
83410;SDS011;73340;53.132;8.174;2024-03-02T08:12:25;16.63;;;8.37;;
83410;SDS011;73340;53.132;8.174;2024-03-02T08:14:50;20.00;;;8.40;;
83410;SDS011;73340;53.132;8.174;2024-03-02T08:17:15;15.13;;;8.63;;
83410;SDS011;73340;53.132;8.174;2024-03-02T08:19:40;14.53;;;7.40;;
83410;SDS011;73340;53.132;8.174;2024-03-02T08:22:06;14.05;;;8.57;;
83410;SDS011;73340;53.132;8.174;2024-03-02T08:24:31;14.83;;;7.57;;
83410;SDS011;73340;53.132;8.174;2024-03-02T08:26:58;15.93;;;9.07;;
83410;SDS011;73340;53.132;8.174;2024-03-02T08:29:23;15.40;;;9.35;;
83410;SDS011;73340;53.132;8.174;2024-03-02T08:31:48;15.07;;;8.77;;
83410;SDS011;73340;53.132;8.174;2024-03-02T08:34:14;14.35;;;7.55;;
83410;SDS011;73340;53.132;8.174;2024-03-02T08:36:39;13.33;;;7.97;;
83410;SDS011;73340;53.132;8.174;2024-03-02T08:39:05;16.25;;;7.80;;
83410;SDS011;73340;53.132;8.174;2024-03-02T08:41:32;15.90;;;8.88;;
83410;SDS011;73340;53.132;8.174;2024-03-02T08:43:57;17.70;;;7.40;;
83410;SDS011;73340;53.132;8.174;2024-03-02T08:46:23;14.43;;;8.10;;
83410;SDS011;73340;53.132;8.174;2024-03-02T08:48:48;13.87;;;7.53;;
83410;SDS011;73340;53.132;8.174;2024-03-02T08:51:13;15.40;;;8.80;;
83410;SDS011;73340;53.132;8.174;2024-03-02T08:53:38;14.03;;;7.83;;
83410;SDS011;73340;53.132;8.174;2024-03-02T08:56:03;13.20;;;7.17;;
83410;SDS011;73340;53.132;8.174;2024-03-02T08:58:30;14.73;;;8.77;;
83410;SDS011;73340;53.132;8.174;2024-03-02T09:00:55;14.53;;;7.17;;
83410;SDS011;73340;53.132;8.174;2024-03-02T09:03:20;15.90;;;8.67;;
83410;SDS011;73340;53.132;8.174;2024-03-02T09:05:46;11.87;;;6.70;;
83410;SDS011;73340;53.132;8.174;2024-03-02T09:08:11;13.90;;;7.90;;
83410;SDS011;73340;53.132;8.174;2024-03-02T09:10:36;14.87;;;6.30;;
83410;SDS011;73340;53.132;8.174;2024-03-02T09:13:03;12.00;;;6.90;;
83410;SDS011;73340;53.132;8.174;2024-03-02T09:15:28;11.17;;;6.67;;
83410;SDS011;73340;53.132;8.174;2024-03-02T09:17:53;12.93;;;7.03;;
83410;SDS011;73340;53.132;8.174;2024-03-02T09:20:19;11.70;;;7.33;;
83410;SDS011;73340;53.132;8.174;2024-03-02T09:22:44;12.63;;;6.53;;
83410;SDS011;73340;53.132;8.174;2024-03-02T09:25:12;13.18;;;7.18;;
83410;SDS011;73340;53.132;8.174;2024-03-02T09:27:37;11.83;;;5.97;;
83410;SDS011;73340;53.132;8.174;2024-03-02T09:30:04;12.40;;;6.32;;
83410;SDS011;73340;53.132;8.174;2024-03-02T09:32:30;11.80;;;6.82;;
83410;SDS011;73340;53.132;8.174;2024-03-02T09:34:55;11.03;;;6.33;;
83410;SDS011;73340;53.132;8.174;2024-03-02T09:37:21;9.47;;;5.50;;
83410;SDS011;73340;53.132;8.174;2024-03-02T09:39:46;12.30;;;5.80;;
83410;SDS011;73340;53.132;8.174;2024-03-02T09:42:11;11.00;;;6.10;;
83410;SDS011;73340;53.132;8.174;2024-03-02T09:44:37;12.30;;;5.97;;
83410;SDS011;73340;53.132;8.174;2024-03-02T09:47:02;9.70;;;5.50;;
83410;SDS011;73340;53.132;8.174;2024-03-02T09:49:27;10.83;;;6.17;;
83410;SDS011;73340;53.132;8.174;2024-03-02T09:51:53;9.87;;;5.40;;
83410;SDS011;73340;53.132;8.174;2024-03-02T09:54:18;9.00;;;5.13;;
83410;SDS011;73340;53.132;8.174;2024-03-02T09:56:44;7.97;;;4.70;;
83410;SDS011;73340;53.132;8.174;2024-03-02T09:59:09;9.50;;;4.43;;
83410;SDS011;73340;53.132;8.174;2024-03-02T10:01:34;8.63;;;4.30;;
83410;SDS011;73340;53.132;8.174;2024-03-02T10:03:59;7.40;;;4.53;;
83410;SDS011;73340;53.132;8.174;2024-03-02T10:06:25;7.60;;;4.53;;
83410;SDS011;73340;53.132;8.174;2024-03-02T10:08:51;8.75;;;4.30;;
83410;SDS011;73340;53.132;8.174;2024-03-02T10:11:29;7.53;;;4.45;;
83410;SDS011;73340;53.132;8.174;2024-03-02T10:14:11;10.13;;;4.80;;
83410;SDS011;73340;53.132;8.174;2024-03-02T10:16:37;8.00;;;4.38;;
83410;SDS011;73340;53.132;8.174;2024-03-02T10:19:15;8.90;;;4.30;;
83410;SDS011;73340;53.132;8.174;2024-03-02T10:21:41;9.00;;;4.57;;
83410;SDS011;73340;53.132;8.174;2024-03-02T10:24:07;8.45;;;4.40;;
83410;SDS011;73340;53.132;8.174;2024-03-02T10:26:32;6.90;;;4.33;;
83410;SDS011;73340;53.132;8.174;2024-03-02T10:28:57;8.33;;;4.13;;
83410;SDS011;73340;53.132;8.174;2024-03-02T10:31:24;7.40;;;3.85;;
83410;SDS011;73340;53.132;8.174;2024-03-02T10:33:52;9.95;;;4.55;;
83410;SDS011;73340;53.132;8.174;2024-03-02T10:36:18;10.10;;;4.53;;
83410;SDS011;73340;53.132;8.174;2024-03-02T10:38:43;7.73;;;4.30;;
83410;SDS011;73340;53.132;8.174;2024-03-02T10:41:09;7.05;;;3.97;;
83410;SDS011;73340;53.132;8.174;2024-03-02T10:43:34;6.20;;;3.93;;
83410;SDS011;73340;53.132;8.174;2024-03-02T10:46:00;7.07;;;3.88;;
83410;SDS011;73340;53.132;8.174;2024-03-02T10:48:25;6.80;;;4.03;;
83410;SDS011;73340;53.132;8.174;2024-03-02T10:50:50;6.68;;;4.32;;
83410;SDS011;73340;53.132;8.174;2024-03-02T10:53:16;7.10;;;3.80;;
83410;SDS011;73340;53.132;8.174;2024-03-02T10:55:41;7.00;;;3.80;;
83410;SDS011;73340;53.132;8.174;2024-03-02T10:58:06;8.10;;;3.80;;
83410;SDS011;73340;53.132;8.174;2024-03-02T11:00:33;7.00;;;4.28;;
83410;SDS011;73340;53.132;8.174;2024-03-02T11:03:06;7.95;;;4.68;;
83410;SDS011;73340;53.132;8.174;2024-03-02T11:05:32;6.95;;;4.30;;
83410;SDS011;73340;53.132;8.174;2024-03-02T11:08:02;7.57;;;3.78;;
83410;SDS011;73340;53.132;8.174;2024-03-02T11:12:57;5.88;;;3.58;;
83410;SDS011;73340;53.132;8.174;2024-03-02T11:15:25;7.53;;;3.55;;
83410;SDS011;73340;53.132;8.174;2024-03-02T11:17:51;6.65;;;3.97;;
83410;SDS011;73340;53.132;8.174;2024-03-02T11:20:17;6.45;;;4.00;;
83410;SDS011;73340;53.132;8.174;2024-03-02T11:22:44;6.22;;;3.80;;
83410;SDS011;73340;53.132;8.174;2024-03-02T11:25:22;6.57;;;4.20;;
83410;SDS011;73340;53.132;8.174;2024-03-02T11:30:48;6.47;;;4.10;;
83410;SDS011;73340;53.132;8.174;2024-03-02T11:35:43;6.78;;;4.18;;
83410;SDS011;73340;53.132;8.174;2024-03-02T11:38:12;6.35;;;3.90;;
83410;SDS011;73340;53.132;8.174;2024-03-02T11:40:40;7.45;;;4.20;;
83410;SDS011;73340;53.132;8.174;2024-03-02T11:43:06;7.63;;;4.53;;
83410;SDS011;73340;53.132;8.174;2024-03-02T11:45:32;5.68;;;3.78;;
83410;SDS011;73340;53.132;8.174;2024-03-02T11:47:58;6.72;;;4.30;;
83410;SDS011;73340;53.132;8.174;2024-03-02T11:52:56;7.05;;;3.78;;
83410;SDS011;73340;53.132;8.174;2024-03-02T11:55:21;6.75;;;4.13;;
83410;SDS011;73340;53.132;8.174;2024-03-02T11:57:46;7.72;;;4.15;;
83410;SDS011;73340;53.132;8.174;2024-03-02T12:00:18;6.65;;;4.30;;
83410;SDS011;73340;53.132;8.174;2024-03-02T12:02:43;7.30;;;4.50;;
83410;SDS011;73340;53.132;8.174;2024-03-02T12:05:12;6.45;;;3.90;;
83410;SDS011;73340;53.132;8.174;2024-03-02T12:07:38;8.05;;;4.43;;
83410;SDS011;73340;53.132;8.174;2024-03-02T12:10:03;6.53;;;4.07;;
83410;SDS011;73340;53.132;8.174;2024-03-02T12:12:28;6.43;;;3.97;;
83410;SDS011;73340;53.132;8.174;2024-03-02T12:14:53;7.17;;;4.13;;
83410;SDS011;73340;53.132;8.174;2024-03-02T12:17:20;8.45;;;4.70;;
83410;SDS011;73340;53.132;8.174;2024-03-02T12:19:46;6.82;;;4.40;;
83410;SDS011;73340;53.132;8.174;2024-03-02T12:22:11;9.10;;;4.87;;
83410;SDS011;73340;53.132;8.174;2024-03-02T12:24:36;8.37;;;4.50;;
83410;SDS011;73340;53.132;8.174;2024-03-02T12:27:02;6.85;;;4.50;;
83410;SDS011;73340;53.132;8.174;2024-03-02T12:29:28;7.68;;;4.50;;
83410;SDS011;73340;53.132;8.174;2024-03-02T12:31:53;7.03;;;4.10;;
83410;SDS011;73340;53.132;8.174;2024-03-02T12:34:18;8.07;;;4.40;;
83410;SDS011;73340;53.132;8.174;2024-03-02T12:36:45;6.57;;;4.30;;
83410;SDS011;73340;53.132;8.174;2024-03-02T12:39:12;7.47;;;4.50;;
83410;SDS011;73340;53.132;8.174;2024-03-02T12:41:38;6.38;;;4.28;;
83410;SDS011;73340;53.132;8.174;2024-03-02T12:44:03;6.60;;;4.07;;
83410;SDS011;73340;53.132;8.174;2024-03-02T12:46:29;7.07;;;4.25;;
83410;SDS011;73340;53.132;8.174;2024-03-02T12:48:54;6.40;;;3.55;;
83410;SDS011;73340;53.132;8.174;2024-03-02T12:51:19;6.23;;;3.80;;
83410;SDS011;73340;53.132;8.174;2024-03-02T12:53:45;6.13;;;3.67;;
83410;SDS011;73340;53.132;8.174;2024-03-02T12:56:10;5.77;;;3.60;;
83410;SDS011;73340;53.132;8.174;2024-03-02T12:58:39;6.68;;;3.33;;
83410;SDS011;73340;53.132;8.174;2024-03-02T13:01:05;5.85;;;4.30;;
83410;SDS011;73340;53.132;8.174;2024-03-02T13:03:31;5.75;;;3.50;;
83410;SDS011;73340;53.132;8.174;2024-03-02T13:05:56;4.53;;;3.03;;
83410;SDS011;73340;53.132;8.174;2024-03-02T13:08:21;7.65;;;4.05;;
83410;SDS011;73340;53.132;8.174;2024-03-02T13:10:46;6.13;;;3.73;;
83410;SDS011;73340;53.132;8.174;2024-03-02T13:13:12;7.00;;;3.93;;
83410;SDS011;73340;53.132;8.174;2024-03-02T13:15:37;6.60;;;3.97;;
83410;SDS011;73340;53.132;8.174;2024-03-02T13:18:03;6.77;;;3.30;;
83410;SDS011;73340;53.132;8.174;2024-03-02T13:20:32;4.60;;;3.13;;
83410;SDS011;73340;53.132;8.174;2024-03-02T13:22:57;5.03;;;3.25;;
83410;SDS011;73340;53.132;8.174;2024-03-02T13:25:22;5.70;;;3.73;;
83410;SDS011;73340;53.132;8.174;2024-03-02T13:27:48;5.03;;;3.17;;
83410;SDS011;73340;53.132;8.174;2024-03-02T13:30:13;4.33;;;3.10;;
83410;SDS011;73340;53.132;8.174;2024-03-02T13:32:38;4.30;;;2.93;;
83410;SDS011;73340;53.132;8.174;2024-03-02T13:35:03;4.63;;;3.17;;
83410;SDS011;73340;53.132;8.174;2024-03-02T13:37:29;5.63;;;3.53;;
83410;SDS011;73340;53.132;8.174;2024-03-02T13:39:54;6.87;;;3.70;;
83410;SDS011;73340;53.132;8.174;2024-03-02T13:42:19;4.23;;;3.00;;
83410;SDS011;73340;53.132;8.174;2024-03-02T13:44:45;5.00;;;3.00;;
83410;SDS011;73340;53.132;8.174;2024-03-02T13:47:14;6.07;;;3.38;;
83410;SDS011;73340;53.132;8.174;2024-03-02T13:49:40;5.50;;;3.20;;
83410;SDS011;73340;53.132;8.174;2024-03-02T13:52:08;6.18;;;3.45;;
83410;SDS011;73340;53.132;8.174;2024-03-02T13:54:38;4.10;;;3.05;;
83410;SDS011;73340;53.132;8.174;2024-03-02T13:57:04;4.97;;;3.13;;
83410;SDS011;73340;53.132;8.174;2024-03-02T13:59:29;4.80;;;3.28;;
83410;SDS011;73340;53.132;8.174;2024-03-02T14:01:54;6.03;;;3.63;;
83410;SDS011;73340;53.132;8.174;2024-03-02T14:04:20;5.50;;;3.40;;
83410;SDS011;73340;53.132;8.174;2024-03-02T14:06:45;5.90;;;3.60;;
83410;SDS011;73340;53.132;8.174;2024-03-02T14:09:11;5.65;;;3.55;;
83410;SDS011;73340;53.132;8.174;2024-03-02T14:11:36;5.13;;;3.33;;
83410;SDS011;73340;53.132;8.174;2024-03-02T14:14:01;5.10;;;3.27;;
83410;SDS011;73340;53.132;8.174;2024-03-02T14:16:27;5.03;;;3.17;;
83410;SDS011;73340;53.132;8.174;2024-03-02T14:18:52;8.27;;;3.67;;
83410;SDS011;73340;53.132;8.174;2024-03-02T14:21:18;5.73;;;3.00;;
83410;SDS011;73340;53.132;8.174;2024-03-02T14:23:43;6.13;;;3.27;;
83410;SDS011;73340;53.132;8.174;2024-03-02T14:26:08;4.30;;;3.13;;
83410;SDS011;73340;53.132;8.174;2024-03-02T14:28:33;5.17;;;3.33;;
83410;SDS011;73340;53.132;8.174;2024-03-02T14:30:59;5.93;;;3.20;;
83410;SDS011;73340;53.132;8.174;2024-03-02T14:33:25;5.05;;;3.08;;
83410;SDS011;73340;53.132;8.174;2024-03-02T14:35:51;7.13;;;3.67;;
83410;SDS011;73340;53.132;8.174;2024-03-02T14:38:16;7.27;;;4.10;;
83410;SDS011;73340;53.132;8.174;2024-03-02T14:40:41;7.57;;;4.20;;
83410;SDS011;73340;53.132;8.174;2024-03-02T14:43:06;5.75;;;4.03;;
83410;SDS011;73340;53.132;8.174;2024-03-02T14:45:32;7.70;;;4.60;;
83410;SDS011;73340;53.132;8.174;2024-03-02T14:47:57;8.48;;;5.18;;
83410;SDS011;73340;53.132;8.174;2024-03-02T14:50:25;8.95;;;4.88;;
83410;SDS011;73340;53.132;8.174;2024-03-02T14:52:50;7.75;;;4.65;;
83410;SDS011;73340;53.132;8.174;2024-03-02T14:55:15;8.27;;;4.70;;
83410;SDS011;73340;53.132;8.174;2024-03-02T14:57:41;7.07;;;4.33;;
83410;SDS011;73340;53.132;8.174;2024-03-02T15:00:06;7.67;;;4.53;;
83410;SDS011;73340;53.132;8.174;2024-03-02T15:02:32;9.93;;;4.50;;
83410;SDS011;73340;53.132;8.174;2024-03-02T15:04:58;8.27;;;4.57;;
83410;SDS011;73340;53.132;8.174;2024-03-02T15:07:23;7.23;;;4.67;;
83410;SDS011;73340;53.132;8.174;2024-03-02T15:09:49;8.50;;;4.57;;
83410;SDS011;73340;53.132;8.174;2024-03-02T15:12:15;10.07;;;4.40;;
83410;SDS011;73340;53.132;8.174;2024-03-02T15:14:41;7.90;;;4.40;;
83410;SDS011;73340;53.132;8.174;2024-03-02T15:17:11;9.13;;;4.22;;
83410;SDS011;73340;53.132;8.174;2024-03-02T15:19:36;8.30;;;4.95;;
83410;SDS011;73340;53.132;8.174;2024-03-02T15:22:01;9.83;;;4.17;;
83410;SDS011;73340;53.132;8.174;2024-03-02T15:24:27;6.63;;;3.80;;
83410;SDS011;73340;53.132;8.174;2024-03-02T15:26:53;7.57;;;4.55;;
83410;SDS011;73340;53.132;8.174;2024-03-02T15:29:18;6.83;;;3.80;;
83410;SDS011;73340;53.132;8.174;2024-03-02T15:31:44;7.75;;;4.55;;
83410;SDS011;73340;53.132;8.174;2024-03-02T15:34:09;5.87;;;3.40;;
83410;SDS011;73340;53.132;8.174;2024-03-02T15:36:34;6.10;;;4.07;;
83410;SDS011;73340;53.132;8.174;2024-03-02T15:39:00;6.78;;;3.92;;
83410;SDS011;73340;53.132;8.174;2024-03-02T15:41:28;5.43;;;3.75;;
83410;SDS011;73340;53.132;8.174;2024-03-02T15:43:53;5.88;;;3.60;;
83410;SDS011;73340;53.132;8.174;2024-03-02T15:46:18;7.13;;;3.43;;
83410;SDS011;73340;53.132;8.174;2024-03-02T15:48:43;7.43;;;3.80;;
83410;SDS011;73340;53.132;8.174;2024-03-02T15:51:08;7.00;;;3.70;;
83410;SDS011;73340;53.132;8.174;2024-03-02T15:53:35;7.63;;;3.60;;
83410;SDS011;73340;53.132;8.174;2024-03-02T15:56:00;7.00;;;3.83;;
83410;SDS011;73340;53.132;8.174;2024-03-02T15:58:25;6.07;;;3.30;;